sensor_id;sensor_type;location;lat;lon;timestamp;pressure;altitude;pressure_sealevel;temperature;humidity
69460;BME280;57182;55.712;37.612;2022-10-16T00:02:49;101231.19;;;5.59;68.89
69460;BME280;57182;55.712;37.612;2022-10-16T00:05:47;101244.22;;;5.59;69.11
69460;BME280;57182;55.712;37.612;2022-10-16T00:09:27;101265.75;;;5.67;71.14
69460;BME280;57182;55.712;37.612;2022-10-16T00:13:10;101236.78;;;5.35;71.43
69460;BME280;57182;55.712;37.612;2022-10-16T00:16:36;101253.88;;;5.51;69.58
69460;BME280;57182;55.712;37.612;2022-10-16T00:19:58;101279.81;;;5.57;70.45
69460;BME280;57182;55.712;37.612;2022-10-16T00:23:26;101264.34;;;5.47;70.41
69460;BME280;57182;55.712;37.612;2022-10-16T00:26:50;101271.47;;;5.37;70.62
69460;BME280;57182;55.712;37.612;2022-10-16T00:30:20;101273.16;;;5.41;72.97
69460;BME280;57182;55.712;37.612;2022-10-16T00:37:29;101270.56;;;5.40;72.01
69460;BME280;57182;55.712;37.612;2022-10-16T00:41:14;101250.13;;;5.14;70.89
69460;BME280;57182;55.712;37.612;2022-10-16T00:44:49;101287.13;;;5.36;71.13
69460;BME280;57182;55.712;37.612;2022-10-16T00:48:24;101252.69;;;5.19;71.65
69460;BME280;57182;55.712;37.612;2022-10-16T00:51:57;101234.34;;;5.26;71.72
69460;BME280;57182;55.712;37.612;2022-10-16T00:55:19;101248.28;;;5.22;71.15
69460;BME280;57182;55.712;37.612;2022-10-16T00:58:59;101269.97;;;5.23;71.95
69460;BME280;57182;55.712;37.612;2022-10-16T01:19:25;101288.31;;;5.15;72.60
69460;BME280;57182;55.712;37.612;2022-10-16T01:30:36;101272.91;;;5.00;72.52
69460;BME280;57182;55.712;37.612;2022-10-16T01:33:38;101296.34;;;5.00;73.24
69460;BME280;57182;55.712;37.612;2022-10-16T01:37:02;101302.38;;;5.02;74.66
69460;BME280;57182;55.712;37.612;2022-10-16T01:40:14;101308.44;;;5.01;74.19
69460;BME280;57182;55.712;37.612;2022-10-16T01:44:02;101270.69;;;4.73;74.03
69460;BME280;57182;55.712;37.612;2022-10-16T01:47:15;101271.63;;;4.69;74.69
69460;BME280;57182;55.712;37.612;2022-10-16T01:50:16;101263.97;;;4.57;74.51
69460;BME280;57182;55.712;37.612;2022-10-16T01:53:17;101296.75;;;4.70;72.96
69460;BME280;57182;55.712;37.612;2022-10-16T01:56:11;101282.13;;;4.61;74.24
69460;BME280;57182;55.712;37.612;2022-10-16T01:59:30;101327.72;;;4.88;74.75
69460;BME280;57182;55.712;37.612;2022-10-16T02:02:31;101282.94;;;4.65;73.63
69460;BME280;57182;55.712;37.612;2022-10-16T02:05:23;101308.66;;;4.86;73.77
69460;BME280;57182;55.712;37.612;2022-10-16T02:08:46;101292.31;;;4.76;73.80
69460;BME280;57182;55.712;37.612;2022-10-16T02:11:58;101342.53;;;4.83;74.58
69460;BME280;57182;55.712;37.612;2022-10-16T02:14:47;101286.41;;;4.64;74.03
69460;BME280;57182;55.712;37.612;2022-10-16T02:17:56;101276.22;;;4.49;73.38
69460;BME280;57182;55.712;37.612;2022-10-16T02:21:26;101314.06;;;4.71;74.96
69460;BME280;57182;55.712;37.612;2022-10-16T02:25:02;101277.16;;;4.41;74.51
69460;BME280;57182;55.712;37.612;2022-10-16T02:32:13;101319.28;;;4.68;75.88
69460;BME280;57182;55.712;37.612;2022-10-16T02:35:54;101286.69;;;4.42;74.31
69460;BME280;57182;55.712;37.612;2022-10-16T02:39:02;101325.44;;;4.64;74.46
69460;BME280;57182;55.712;37.612;2022-10-16T02:42:26;101293.66;;;4.37;74.31
69460;BME280;57182;55.712;37.612;2022-10-16T02:45:12;101305.59;;;4.57;73.46
69460;BME280;57182;55.712;37.612;2022-10-16T02:52:50;101313.34;;;4.60;73.12
69460;BME280;57182;55.712;37.612;2022-10-16T02:55:55;101280.47;;;4.54;72.37
69460;BME280;57182;55.712;37.612;2022-10-16T02:59:03;101325.31;;;4.71;73.04
69460;BME280;57182;55.712;37.612;2022-10-16T03:02:05;101339.94;;;4.83;72.65
69460;BME280;57182;55.712;37.612;2022-10-16T03:05:01;101333.94;;;4.76;72.43
69460;BME280;57182;55.712;37.612;2022-10-16T03:07:42;101328.69;;;4.78;71.98
69460;BME280;57182;55.712;37.612;2022-10-16T03:10:37;101306.44;;;4.57;72.16
69460;BME280;57182;55.712;37.612;2022-10-16T03:13:28;101311.59;;;4.60;72.47
69460;BME280;57182;55.712;37.612;2022-10-16T03:16:13;101346.88;;;4.81;72.33
69460;BME280;57182;55.712;37.612;2022-10-16T03:18:48;101331.47;;;4.66;72.30
69460;BME280;57182;55.712;37.612;2022-10-16T03:21:30;101313.38;;;4.57;72.07
69460;BME280;57182;55.712;37.612;2022-10-16T03:24:22;101337.50;;;4.68;72.20
69460;BME280;57182;55.712;37.612;2022-10-16T03:27:01;101345.28;;;4.68;73.35
69460;BME280;57182;55.712;37.612;2022-10-16T03:29:53;101322.16;;;4.47;72.70
69460;BME280;57182;55.712;37.612;2022-10-16T03:32:47;101331.66;;;4.47;72.86
69460;BME280;57182;55.712;37.612;2022-10-16T03:35:51;101328.25;;;4.42;73.11
69460;BME280;57182;55.712;37.612;2022-10-16T03:38:43;101353.34;;;4.48;72.78
69460;BME280;57182;55.712;37.612;2022-10-16T03:41:34;101355.81;;;4.59;74.29
69460;BME280;57182;55.712;37.612;2022-10-16T03:44:31;101356.81;;;4.49;72.89
69460;BME280;57182;55.712;37.612;2022-10-16T03:47:37;101312.81;;;4.30;72.57
69460;BME280;57182;55.712;37.612;2022-10-16T03:50:36;101365.41;;;4.54;74.02
69460;BME280;57182;55.712;37.612;2022-10-16T03:53:16;101325.88;;;4.26;72.80
69460;BME280;57182;55.712;37.612;2022-10-16T03:55:49;101320.59;;;4.32;73.32
69460;BME280;57182;55.712;37.612;2022-10-16T03:58:34;101328.53;;;4.21;73.62
69460;BME280;57182;55.712;37.612;2022-10-16T04:01:07;101368.19;;;4.37;73.39
69460;BME280;57182;55.712;37.612;2022-10-16T04:03:41;101339.66;;;4.34;73.74
69460;BME280;57182;55.712;37.612;2022-10-16T04:06:12;101346.59;;;4.30;73.80
69460;BME280;57182;55.712;37.612;2022-10-16T04:22:09;101329.41;;;4.19;74.22
69460;BME280;57182;55.712;37.612;2022-10-16T04:30:14;101332.81;;;4.24;73.94
69460;BME280;57182;55.712;37.612;2022-10-16T04:34:15;101321.63;;;4.14;74.53
69460;BME280;57182;55.712;37.612;2022-10-16T05:28:03;101359.41;;;5.17;70.55
69460;BME280;57182;55.712;37.612;2022-10-16T05:31:00;101401.38;;;5.55;70.56
69460;BME280;57182;55.712;37.612;2022-10-16T05:34:02;101368.72;;;5.91;69.79
69460;BME280;57182;55.712;37.612;2022-10-16T05:36:42;101372.78;;;6.97;66.20
69460;BME280;57182;55.712;37.612;2022-10-16T05:39:57;101379.94;;;8.69;60.92
69460;BME280;57182;55.712;37.612;2022-10-16T05:43:38;101356.13;;;9.90;62.93
69460;BME280;57182;55.712;37.612;2022-10-16T06:07:56;101366.31;;;8.89;56.73
69460;BME280;57182;55.712;37.612;2022-10-16T06:20:00;101384.41;;;7.98;60.01
69460;BME280;57182;55.712;37.612;2022-10-16T06:24:06;101349.94;;;7.82;59.47
69460;BME280;57182;55.712;37.612;2022-10-16T06:27:52;101379.53;;;8.18;59.81
69460;BME280;57182;55.712;37.612;2022-10-16T06:35:22;101364.91;;;8.45;58.13
69460;BME280;57182;55.712;37.612;2022-10-16T06:54:28;101392.28;;;8.64;57.92
69460;BME280;57182;55.712;37.612;2022-10-16T06:58:28;101355.66;;;8.64;57.63
69460;BME280;57182;55.712;37.612;2022-10-16T07:03:04;101376.38;;;9.02;56.40
69460;BME280;57182;55.712;37.612;2022-10-16T07:07:12;101417.38;;;9.62;55.44
69460;BME280;57182;55.712;37.612;2022-10-16T07:11:29;101398.50;;;10.04;53.77
69460;BME280;57182;55.712;37.612;2022-10-16T07:26:48;101375.34;;;10.17;52.27
69460;BME280;57182;55.712;37.612;2022-10-16T07:34:17;101381.66;;;10.62;52.95
69460;BME280;57182;55.712;37.612;2022-10-16T07:37:08;101379.69;;;11.37;50.33
69460;BME280;57182;55.712;37.612;2022-10-16T07:40:16;101374.16;;;12.10;49.51
69460;BME280;57182;55.712;37.612;2022-10-16T07:43:26;101373.59;;;12.43;46.91
69460;BME280;57182;55.712;37.612;2022-10-16T07:46:50;101375.03;;;13.09;46.99
69460;BME280;57182;55.712;37.612;2022-10-16T07:54:59;101374.13;;;16.11;44.90
69460;BME280;57182;55.712;37.612;2022-10-16T07:58:17;101377.03;;;17.09;39.08
69460;BME280;57182;55.712;37.612;2022-10-16T08:02:14;101409.84;;;18.43;38.19
69460;BME280;57182;55.712;37.612;2022-10-16T08:23:12;101371.28;;;18.75;33.08
69460;BME280;57182;55.712;37.612;2022-10-16T08:26:43;101367.56;;;18.65;35.98
69460;BME280;57182;55.712;37.612;2022-10-16T08:58:53;101361.75;;;18.46;32.90
69460;BME280;57182;55.712;37.612;2022-10-16T09:05:37;101392.72;;;18.34;33.84
69460;BME280;57182;55.712;37.612;2022-10-16T09:09:20;101382.19;;;18.45;33.29
69460;BME280;57182;55.712;37.612;2022-10-16T09:12:42;101379.47;;;18.72;32.88
69460;BME280;57182;55.712;37.612;2022-10-16T09:19:31;101387.78;;;18.15;33.63
69460;BME280;57182;55.712;37.612;2022-10-16T09:23:19;101389.13;;;18.08;33.25
69460;BME280;57182;55.712;37.612;2022-10-16T09:26:47;101378.34;;;18.24;33.83
69460;BME280;57182;55.712;37.612;2022-10-16T09:29:40;101354.00;;;17.64;34.07
69460;BME280;57182;55.712;37.612;2022-10-16T09:32:48;101352.28;;;17.63;34.19
69460;BME280;57182;55.712;37.612;2022-10-16T09:36:03;101385.47;;;17.97;33.49
69460;BME280;57182;55.712;37.612;2022-10-16T09:39:05;101361.22;;;17.89;33.74
69460;BME280;57182;55.712;37.612;2022-10-16T09:43:06;101366.19;;;17.40;34.51
69460;BME280;57182;55.712;37.612;2022-10-16T09:46:47;101378.81;;;17.36;34.71
69460;BME280;57182;55.712;37.612;2022-10-16T09:50:00;101370.53;;;17.41;34.29
69460;BME280;57182;55.712;37.612;2022-10-16T09:53:42;101362.28;;;17.59;33.28
69460;BME280;57182;55.712;37.612;2022-10-16T10:00:35;101370.22;;;16.47;35.49
69460;BME280;57182;55.712;37.612;2022-10-16T10:03:43;101345.25;;;16.07;36.11
69460;BME280;57182;55.712;37.612;2022-10-16T10:06:28;101340.44;;;16.13;35.93
69460;BME280;57182;55.712;37.612;2022-10-16T10:09:22;101379.56;;;16.24;35.91
69460;BME280;57182;55.712;37.612;2022-10-16T10:12:28;101344.00;;;15.98;36.38
69460;BME280;57182;55.712;37.612;2022-10-16T10:15:41;101374.47;;;16.05;36.36
69460;BME280;57182;55.712;37.612;2022-10-16T10:18:22;101348.50;;;16.12;36.22
69460;BME280;57182;55.712;37.612;2022-10-16T10:21:19;101342.56;;;15.93;36.74
69460;BME280;57182;55.712;37.612;2022-10-16T10:24:17;101368.09;;;15.94;36.69
69460;BME280;57182;55.712;37.612;2022-10-16T10:27:14;101341.25;;;15.54;37.05
69460;BME280;57182;55.712;37.612;2022-10-16T10:30:29;101354.19;;;15.43;37.76
69460;BME280;57182;55.712;37.612;2022-10-16T10:52:55;101349.75;;;14.97;38.75
69460;BME280;57182;55.712;37.612;2022-10-16T11:04:50;101339.00;;;15.31;38.01
69460;BME280;57182;55.712;37.612;2022-10-16T11:09:08;101302.41;;;14.60;39.28
69460;BME280;57182;55.712;37.612;2022-10-16T11:13:20;101338.81;;;15.03;39.37
69460;BME280;57182;55.712;37.612;2022-10-16T11:21:19;101317.19;;;15.28;38.06
69460;BME280;57182;55.712;37.612;2022-10-16T11:24:25;101340.59;;;15.96;37.87
69460;BME280;57182;55.712;37.612;2022-10-16T11:38:43;101324.47;;;17.42;35.13
69460;BME280;57182;55.712;37.612;2022-10-16T11:57:51;101305.34;;;18.03;33.71
69460;BME280;57182;55.712;37.612;2022-10-16T12:01:43;101294.56;;;17.79;34.32
69460;BME280;57182;55.712;37.612;2022-10-16T12:06:14;101313.34;;;16.94;35.21
69460;BME280;57182;55.712;37.612;2022-10-16T12:09:13;101312.75;;;16.19;36.91
69460;BME280;57182;55.712;37.612;2022-10-16T12:12:28;101287.84;;;15.78;37.54
69460;BME280;57182;55.712;37.612;2022-10-16T12:16:20;101323.09;;;15.94;37.46
69460;BME280;57182;55.712;37.612;2022-10-16T12:20:22;101334.72;;;15.13;39.27
69460;BME280;57182;55.712;37.612;2022-10-16T12:24:05;101317.84;;;14.34;40.79
69460;BME280;57182;55.712;37.612;2022-10-16T12:31:00;101289.53;;;13.51;42.19
69460;BME280;57182;55.712;37.612;2022-10-16T12:34:20;101303.13;;;13.24;43.02
69460;BME280;57182;55.712;37.612;2022-10-16T12:37:40;101291.63;;;12.88;43.52
69460;BME280;57182;55.712;37.612;2022-10-16T12:52:31;101300.56;;;12.47;45.15
69460;BME280;57182;55.712;37.612;2022-10-16T12:55:22;101300.72;;;12.44;45.21
69460;BME280;57182;55.712;37.612;2022-10-16T13:04:59;101289.88;;;12.31;44.90
69460;BME280;57182;55.712;37.612;2022-10-16T13:12:16;101277.75;;;12.07;45.75
69460;BME280;57182;55.712;37.612;2022-10-16T13:16:01;101294.88;;;12.17;45.19
69460;BME280;57182;55.712;37.612;2022-10-16T13:18:44;101307.16;;;12.17;45.60
69460;BME280;57182;55.712;37.612;2022-10-16T13:22:22;101328.22;;;12.17;46.63
69460;BME280;57182;55.712;37.612;2022-10-16T13:29:45;101275.22;;;11.85;46.83
69460;BME280;57182;55.712;37.612;2022-10-16T13:33:32;101302.88;;;11.94;47.24
69460;BME280;57182;55.712;37.612;2022-10-16T15:25:01;101297.75;;;10.10;52.13
69460;BME280;57182;55.712;37.612;2022-10-16T15:28:05;101297.38;;;9.96;52.06
69460;BME280;57182;55.712;37.612;2022-10-16T15:34:45;101292.25;;;9.91;52.72
69460;BME280;57182;55.712;37.612;2022-10-16T15:37:25;101317.94;;;10.08;52.58
69460;BME280;57182;55.712;37.612;2022-10-16T15:43:36;101300.50;;;9.81;53.29
69460;BME280;57182;55.712;37.612;2022-10-16T15:46:22;101306.56;;;9.83;53.05
69460;BME280;57182;55.712;37.612;2022-10-16T15:49:33;101316.72;;;9.92;53.18
69460;BME280;57182;55.712;37.612;2022-10-16T15:57:37;101313.50;;;9.84;53.96
69460;BME280;57182;55.712;37.612;2022-10-16T16:00:53;101274.03;;;9.62;53.53
69460;BME280;57182;55.712;37.612;2022-10-16T16:04:04;101276.00;;;9.56;53.16
69460;BME280;57182;55.712;37.612;2022-10-16T16:11:46;101317.41;;;9.72;54.05
69460;BME280;57182;55.712;37.612;2022-10-16T16:14:57;101262.25;;;9.49;53.18
69460;BME280;57182;55.712;37.612;2022-10-16T16:18:42;101286.53;;;9.54;54.28
69460;BME280;57182;55.712;37.612;2022-10-16T16:31:23;101281.97;;;9.33;54.33
69460;BME280;57182;55.712;37.612;2022-10-16T16:34:54;101273.22;;;9.34;54.88
69460;BME280;57182;55.712;37.612;2022-10-16T16:38:46;101266.63;;;9.22;53.90
69460;BME280;57182;55.712;37.612;2022-10-16T16:41:42;101283.88;;;9.28;54.22
69460;BME280;57182;55.712;37.612;2022-10-16T16:45:47;101283.72;;;9.34;54.89
69460;BME280;57182;55.712;37.612;2022-10-16T16:48:54;101267.53;;;9.21;54.73
69460;BME280;57182;55.712;37.612;2022-10-16T16:52:14;101305.00;;;9.23;54.68
69460;BME280;57182;55.712;37.612;2022-10-16T16:56:04;101281.81;;;9.11;55.13
69460;BME280;57182;55.712;37.612;2022-10-16T16:59:34;101286.97;;;9.14;54.71
69460;BME280;57182;55.712;37.612;2022-10-16T17:02:59;101320.63;;;9.26;55.02
69460;BME280;57182;55.712;37.612;2022-10-16T17:10:10;101268.81;;;9.08;55.57
69460;BME280;57182;55.712;37.612;2022-10-16T17:13:45;101276.66;;;9.08;54.99
69460;BME280;57182;55.712;37.612;2022-10-16T17:24:39;101270.88;;;8.99;56.01
69460;BME280;57182;55.712;37.612;2022-10-16T17:28:11;101273.63;;;8.94;55.32
69460;BME280;57182;55.712;37.612;2022-10-16T17:40:22;101272.94;;;8.88;55.87
69460;BME280;57182;55.712;37.612;2022-10-16T17:47:33;101298.03;;;8.95;55.11
69460;BME280;57182;55.712;37.612;2022-10-16T17:50:30;101276.56;;;8.83;55.41
69460;BME280;57182;55.712;37.612;2022-10-16T17:53:52;101319.69;;;9.00;55.20
69460;BME280;57182;55.712;37.612;2022-10-16T17:57:44;101276.75;;;8.77;55.22
69460;BME280;57182;55.712;37.612;2022-10-16T18:01:32;101315.59;;;8.91;55.46
69460;BME280;57182;55.712;37.612;2022-10-16T18:05:23;101313.63;;;8.99;56.07
69460;BME280;57182;55.712;37.612;2022-10-16T18:08:25;101284.53;;;8.79;55.26
69460;BME280;57182;55.712;37.612;2022-10-16T18:12:15;101326.84;;;8.95;55.78
69460;BME280;57182;55.712;37.612;2022-10-16T18:15:10;101272.72;;;8.66;55.89
69460;BME280;57182;55.712;37.612;2022-10-16T18:18:03;101272.75;;;8.64;55.76
69460;BME280;57182;55.712;37.612;2022-10-16T18:24:53;101318.72;;;8.74;55.93
69460;BME280;57182;55.712;37.612;2022-10-16T18:27:38;101279.22;;;8.53;56.59
69460;BME280;57182;55.712;37.612;2022-10-16T18:30:42;101300.03;;;8.57;55.78
69460;BME280;57182;55.712;37.612;2022-10-16T18:33:36;101298.28;;;8.56;56.19
69460;BME280;57182;55.712;37.612;2022-10-16T18:40:21;101264.69;;;8.43;56.29
69460;BME280;57182;55.712;37.612;2022-10-16T18:43:57;101306.19;;;8.55;56.23
69460;BME280;57182;55.712;37.612;2022-10-16T18:47:18;101309.59;;;8.58;56.11
69460;BME280;57182;55.712;37.612;2022-10-16T18:50:45;101258.75;;;8.36;56.50
69460;BME280;57182;55.712;37.612;2022-10-16T18:53:28;101298.81;;;8.38;56.37
69460;BME280;57182;55.712;37.612;2022-10-16T18:56:10;101277.03;;;8.38;55.96
69460;BME280;57182;55.712;37.612;2022-10-16T18:58:50;101304.75;;;8.45;56.13
69460;BME280;57182;55.712;37.612;2022-10-16T19:01:25;101326.25;;;8.56;56.05
69460;BME280;57182;55.712;37.612;2022-10-16T19:04:15;101282.16;;;8.41;56.35
69460;BME280;57182;55.712;37.612;2022-10-16T19:06:56;101303.00;;;8.44;55.89
69460;BME280;57182;55.712;37.612;2022-10-16T19:38:22;101299.75;;;8.36;56.69
69460;BME280;57182;55.712;37.612;2022-10-16T19:53:43;101267.22;;;8.13;56.90
69460;BME280;57182;55.712;37.612;2022-10-16T19:57:05;101289.16;;;8.08;56.78
69460;BME280;57182;55.712;37.612;2022-10-16T20:00:01;101284.69;;;8.11;56.77
69460;BME280;57182;55.712;37.612;2022-10-16T20:07:31;101289.81;;;8.16;56.52
69460;BME280;57182;55.712;37.612;2022-10-16T20:10:28;101310.59;;;8.20;56.83
69460;BME280;57182;55.712;37.612;2022-10-16T20:13:08;101277.06;;;8.04;56.59
69460;BME280;57182;55.712;37.612;2022-10-16T20:16:26;101263.06;;;8.06;56.50
69460;BME280;57182;55.712;37.612;2022-10-16T20:20:06;101262.66;;;7.89;57.12
69460;BME280;57182;55.712;37.612;2022-10-16T20:24:08;101254.81;;;7.89;56.63
69460;BME280;57182;55.712;37.612;2022-10-16T20:27:17;101250.59;;;7.84;56.53
69460;BME280;57182;55.712;37.612;2022-10-16T20:34:39;101265.22;;;7.91;57.34
69460;BME280;57182;55.712;37.612;2022-10-16T20:38:19;101249.00;;;7.78;56.97
69460;BME280;57182;55.712;37.612;2022-10-16T20:41:49;101245.78;;;7.67;57.41
69460;BME280;57182;55.712;37.612;2022-10-16T20:49:30;101246.03;;;7.58;57.66
69460;BME280;57182;55.712;37.612;2022-10-16T20:53:34;101257.03;;;7.71;57.68
69460;BME280;57182;55.712;37.612;2022-10-16T20:56:44;101257.16;;;7.66;57.71
69460;BME280;57182;55.712;37.612;2022-10-16T21:08:55;101262.53;;;7.60;58.62
69460;BME280;57182;55.712;37.612;2022-10-16T21:12:44;101249.91;;;7.43;59.09
69460;BME280;57182;55.712;37.612;2022-10-16T21:16:36;101271.31;;;7.57;58.72
69460;BME280;57182;55.712;37.612;2022-10-16T21:19:47;101238.72;;;7.38;58.00
69460;BME280;57182;55.712;37.612;2022-10-16T21:22:54;101233.63;;;7.32;58.60
69460;BME280;57182;55.712;37.612;2022-10-16T21:26:15;101254.44;;;7.35;58.52
69460;BME280;57182;55.712;37.612;2022-10-16T21:33:46;101271.81;;;7.38;58.99
69460;BME280;57182;55.712;37.612;2022-10-16T21:37:26;101255.59;;;7.24;59.06
69460;BME280;57182;55.712;37.612;2022-10-16T21:40:47;101235.50;;;7.26;59.87
69460;BME280;57182;55.712;37.612;2022-10-16T21:44:11;101216.78;;;7.09;59.86
69460;BME280;57182;55.712;37.612;2022-10-16T21:47:42;101237.47;;;7.18;59.75
69460;BME280;57182;55.712;37.612;2022-10-16T21:51:14;101242.69;;;7.18;59.55
69460;BME280;57182;55.712;37.612;2022-10-16T21:54:31;101280.59;;;7.34;59.49
69460;BME280;57182;55.712;37.612;2022-10-16T21:57:43;101267.69;;;7.28;59.25
69460;BME280;57182;55.712;37.612;2022-10-16T22:01:09;101225.53;;;7.06;59.92
69460;BME280;57182;55.712;37.612;2022-10-16T22:04:18;101246.13;;;7.18;59.69
69460;BME280;57182;55.712;37.612;2022-10-16T22:07:10;101247.13;;;7.14;59.65
69460;BME280;57182;55.712;37.612;2022-10-16T22:10:17;101287.72;;;7.26;60.61
69460;BME280;57182;55.712;37.612;2022-10-16T22:13:36;101245.56;;;7.07;59.95
69460;BME280;57182;55.712;37.612;2022-10-16T22:16:35;101244.81;;;7.02;60.29
69460;BME280;57182;55.712;37.612;2022-10-16T22:19:45;101250.03;;;7.01;60.01
69460;BME280;57182;55.712;37.612;2022-10-16T22:23:06;101257.38;;;7.22;59.67
69460;BME280;57182;55.712;37.612;2022-10-16T22:26:09;101234.50;;;6.96;60.17
69460;BME280;57182;55.712;37.612;2022-10-16T22:34:24;101236.22;;;6.95;60.10
69460;BME280;57182;55.712;37.612;2022-10-16T22:37:19;101252.59;;;7.04;60.08
69460;BME280;57182;55.712;37.612;2022-10-16T22:40:52;101257.88;;;7.01;59.54
69460;BME280;57182;55.712;37.612;2022-10-16T22:44:09;101237.22;;;6.91;60.45
69460;BME280;57182;55.712;37.612;2022-10-16T22:47:32;101223.44;;;6.85;60.08
69460;BME280;57182;55.712;37.612;2022-10-16T22:51:08;101247.84;;;6.82;60.91
69460;BME280;57182;55.712;37.612;2022-10-16T22:54:45;101255.31;;;6.99;59.77
69460;BME280;57182;55.712;37.612;2022-10-16T22:58:11;101240.84;;;6.84;60.82
69460;BME280;57182;55.712;37.612;2022-10-16T23:01:36;101250.53;;;6.79;60.32
69460;BME280;57182;55.712;37.612;2022-10-16T23:05:37;101283.78;;;7.08;60.08
69460;BME280;57182;55.712;37.612;2022-10-16T23:09:09;101259.03;;;6.89;60.23
69460;BME280;57182;55.712;37.612;2022-10-16T23:12:26;101233.78;;;6.89;60.14
69460;BME280;57182;55.712;37.612;2022-10-16T23:15:43;101233.78;;;6.89;60.40
69460;BME280;57182;55.712;37.612;2022-10-16T23:19:26;101235.28;;;7.00;61.03
69460;BME280;57182;55.712;37.612;2022-10-16T23:23:05;101214.03;;;6.78;60.19
69460;BME280;57182;55.712;37.612;2022-10-16T23:26:19;101212.06;;;6.87;59.92
69460;BME280;57182;55.712;37.612;2022-10-16T23:29:42;101218.19;;;6.86;60.23
69460;BME280;57182;55.712;37.612;2022-10-16T23:33:09;101195.75;;;6.79;60.71
69460;BME280;57182;55.712;37.612;2022-10-16T23:37:07;101210.34;;;6.86;60.02
69460;BME280;57182;55.712;37.612;2022-10-16T23:41:00;101239.41;;;7.10;59.99
69460;BME280;57182;55.712;37.612;2022-10-16T23:44:34;101239.66;;;6.99;60.70
69460;BME280;57182;55.712;37.612;2022-10-16T23:47:51;101224.97;;;6.93;60.61
69460;BME280;57182;55.712;37.612;2022-10-16T23:51:09;101233.56;;;6.98;60.23
69460;BME280;57182;55.712;37.612;2022-10-16T23:54:53;101224.19;;;6.90;60.49
69460;BME280;57182;55.712;37.612;2022-10-16T23:57:54;101220.41;;;7.03;60.88
